createdAt,value
2023-01-28T00:01:36.793Z,3.50
2023-01-28T00:04:05.178Z,3.50
2023-01-28T00:06:35.741Z,3.50
2023-01-28T00:09:04.094Z,3.50
2023-01-28T00:11:32.390Z,3.50
2023-01-28T00:14:01.200Z,3.50
2023-01-28T00:16:30.429Z,3.50
2023-01-28T00:18:58.809Z,3.40
2023-01-28T00:21:27.135Z,3.40
2023-01-28T00:23:58.317Z,3.40
2023-01-28T00:26:27.716Z,3.40
2023-01-28T00:28:55.993Z,3.40
2023-01-28T00:31:27.346Z,3.40
2023-01-28T00:33:57.596Z,3.40
2023-01-28T00:36:28.160Z,3.40
2023-01-28T00:39:00.136Z,3.30
2023-01-28T00:41:30.628Z,3.30
2023-01-28T00:43:59.646Z,3.30
2023-01-28T00:46:28.042Z,3.30
2023-01-28T00:48:56.484Z,3.20
2023-01-28T00:51:24.825Z,3.30
2023-01-28T00:53:53.339Z,3.20
2023-01-28T00:56:22.955Z,3.20
2023-01-28T00:58:51.270Z,3.20
2023-01-28T01:01:24.023Z,3.20
2023-01-28T01:03:57.751Z,3.20
2023-01-28T01:06:26.937Z,3.20
2023-01-28T01:08:55.213Z,3.20
2023-01-28T01:11:25.026Z,3.20
2023-01-28T01:13:56.765Z,3.20
2023-01-28T01:16:27.086Z,3.20
2023-01-28T01:18:56.471Z,3.20
2023-01-28T01:21:27.639Z,3.20
2023-01-28T01:23:57.323Z,3.20
2023-01-28T01:26:27.979Z,3.20
2023-01-28T01:28:56.450Z,3.20
2023-01-28T01:31:25.125Z,3.20
2023-01-28T01:33:54.124Z,3.20
2023-01-28T01:36:23.656Z,3.20
2023-01-28T01:38:55.842Z,3.20
2023-01-28T01:41:30.300Z,3.10
2023-01-28T01:44:01.317Z,3.20
2023-01-28T01:46:36.439Z,3.10
2023-01-28T01:49:15.553Z,3.10
2023-01-28T01:51:46.333Z,3.10
2023-01-28T01:54:15.878Z,3.10
2023-01-28T01:56:49.118Z,3.10
2023-01-28T01:59:23.655Z,3.10
2023-01-28T02:01:52.095Z,3.00
2023-01-28T02:04:24.549Z,3.00
2023-01-28T02:06:53.986Z,3.00
2023-01-28T02:09:25.876Z,3.00
2023-01-28T02:12:04.383Z,3.00
2023-01-28T02:14:36.989Z,3.00
2023-01-28T02:17:06.296Z,3.00
2023-01-28T02:19:40.372Z,2.90
2023-01-28T02:22:46.747Z,2.90
2023-01-28T02:25:45.207Z,2.90
2023-01-28T02:28:25.501Z,2.90
2023-01-28T02:31:00.337Z,2.90
2023-01-28T02:33:36.756Z,2.80
2023-01-28T02:36:16.558Z,2.80
2023-01-28T02:38:50.213Z,2.80
2023-01-28T02:41:26.949Z,2.70
2023-01-28T02:43:56.623Z,2.70
2023-01-28T02:46:54.188Z,2.70
2023-01-28T02:49:30.508Z,2.70
2023-01-28T02:52:41.986Z,2.60
2023-01-28T02:55:12.872Z,2.60
2023-01-28T02:57:51.644Z,2.60
2023-01-28T03:00:27.385Z,2.60
2023-01-28T03:03:08.305Z,2.60
2023-01-28T03:05:40.212Z,2.50
2023-01-28T03:08:24.448Z,2.50
2023-01-28T03:11:12.067Z,2.50
2023-01-28T03:13:58.695Z,2.50
2023-01-28T03:16:46.481Z,2.50
2023-01-28T03:19:32.867Z,2.50
2023-01-28T03:22:18.885Z,2.50
2023-01-28T03:25:09.768Z,2.50
2023-01-28T03:28:05.481Z,2.50
2023-01-28T03:31:01.497Z,2.50
2023-01-28T03:33:51.056Z,2.50
2023-01-28T03:36:37.287Z,2.50
2023-01-28T03:39:05.750Z,2.50
2023-01-28T03:41:34.041Z,2.40
2023-01-28T03:44:19.545Z,2.40
2023-01-28T03:46:48.881Z,2.40
2023-01-28T03:49:19.066Z,2.40
2023-01-28T03:51:47.344Z,2.40
2023-01-28T03:54:15.889Z,2.40
2023-01-28T03:56:44.136Z,2.40
2023-01-28T03:59:12.395Z,2.40
2023-01-28T04:01:40.766Z,2.40
2023-01-28T04:04:22.854Z,2.40
2023-01-28T04:06:53.405Z,2.40
2023-01-28T04:09:22.157Z,2.40
2023-01-28T04:11:51.730Z,2.30
2023-01-28T04:14:20.327Z,2.40
2023-01-28T04:16:49.104Z,2.40
2023-01-28T04:19:17.340Z,2.30
2023-01-28T04:21:45.634Z,2.40
2023-01-28T04:24:15.477Z,2.30
2023-01-28T04:26:43.835Z,2.30
2023-01-28T04:29:12.153Z,2.40
2023-01-28T04:31:40.413Z,2.30
2023-01-28T04:34:09.310Z,2.30
2023-01-28T04:36:37.644Z,2.30
2023-01-28T04:39:06.083Z,2.30
2023-01-28T04:41:35.722Z,2.20
2023-01-28T04:44:03.964Z,2.20
2023-01-28T04:46:32.366Z,2.20
2023-01-28T04:49:00.927Z,2.20
2023-01-28T04:51:29.238Z,2.20
2023-01-28T04:53:57.496Z,2.10
2023-01-28T04:56:25.758Z,2.20
2023-01-28T04:58:55.393Z,2.20
2023-01-28T05:01:24.633Z,2.10
2023-01-28T05:03:53.508Z,2.10
2023-01-28T05:06:21.822Z,2.10
2023-01-28T05:08:50.092Z,2.10
2023-01-28T05:11:18.332Z,2.10
2023-01-28T05:13:46.615Z,2.10
2023-01-28T05:16:16.340Z,2.10
2023-01-28T05:18:48.008Z,2.10
2023-01-28T05:21:16.392Z,2.10
2023-01-28T05:23:44.795Z,2.10
2023-01-28T05:26:13.403Z,2.00
2023-01-28T05:28:41.690Z,2.00
2023-01-28T05:31:11.321Z,2.00
2023-01-28T05:33:41.068Z,2.00
2023-01-28T05:36:09.629Z,2.00
2023-01-28T05:38:37.946Z,2.00
2023-01-28T05:41:06.447Z,2.00
2023-01-28T05:43:34.788Z,2.00
2023-01-28T05:46:03.184Z,2.00
2023-01-28T05:48:31.543Z,2.00
2023-01-28T05:51:01.910Z,2.00
2023-01-28T05:53:30.270Z,2.00
2023-01-28T05:55:58.582Z,2.00
2023-01-28T05:58:30.938Z,2.00
2023-01-28T06:00:59.304Z,2.00
2023-01-28T06:03:27.605Z,2.00
2023-01-28T06:05:55.890Z,2.00
2023-01-28T06:08:25.564Z,2.00
2023-01-28T06:10:53.892Z,2.00
2023-01-28T06:13:22.131Z,2.00
2023-01-28T06:15:51.621Z,2.00
2023-01-28T06:18:20.007Z,1.90
2023-01-28T06:20:50.827Z,1.90
2023-01-28T06:23:19.320Z,1.90
2023-01-28T06:25:48.930Z,1.90
2023-01-28T06:28:17.275Z,1.90
2023-01-28T06:30:45.517Z,1.90
2023-01-28T06:33:13.826Z,1.90
2023-01-28T06:35:42.873Z,1.80
2023-01-28T06:38:11.453Z,1.90
2023-01-28T06:40:39.723Z,1.90
2023-01-28T06:43:09.566Z,1.90
2023-01-28T06:45:37.846Z,1.90
2023-01-28T06:48:08.841Z,1.90
2023-01-28T06:50:37.045Z,1.80
2023-01-28T06:53:05.373Z,1.90
2023-01-28T06:55:33.624Z,1.90
2023-01-28T06:58:01.971Z,1.90
2023-01-28T07:00:31.699Z,1.80
2023-01-28T07:03:00.326Z,1.80
2023-01-28T07:05:28.725Z,1.80
2023-01-28T07:07:57.023Z,1.80
2023-01-28T07:10:25.310Z,1.80
2023-01-28T07:12:53.591Z,1.80
2023-01-28T07:15:21.820Z,1.80
2023-01-28T07:17:51.498Z,1.80
2023-01-28T07:20:20.008Z,1.80
2023-01-28T07:22:48.449Z,1.80
2023-01-28T07:25:17.318Z,1.80
2023-01-28T07:27:50.881Z,1.80
2023-01-28T07:30:20.747Z,1.80
2023-01-28T07:32:54.365Z,1.80
2023-01-28T07:35:23.386Z,1.80
2023-01-28T07:37:55.759Z,1.80
2023-01-28T07:40:24.601Z,1.80
2023-01-28T07:42:55.382Z,1.80
2023-01-28T07:45:25.067Z,1.80
2023-01-28T07:47:59.191Z,1.80
2023-01-28T07:50:29.128Z,1.80
2023-01-28T07:52:58.381Z,1.80
2023-01-28T07:55:30.214Z,1.80
2023-01-28T07:58:00.904Z,1.80
2023-01-28T08:00:31.905Z,1.80
2023-01-28T08:03:02.966Z,1.80
2023-01-28T08:05:41.121Z,1.80
2023-01-28T08:08:10.380Z,1.80
2023-01-28T08:10:39.892Z,1.90
2023-01-28T08:13:08.662Z,1.80
2023-01-28T08:15:37.151Z,1.80
2023-01-28T08:18:08.173Z,1.80
2023-01-28T08:20:36.320Z,1.90
2023-01-28T08:23:09.277Z,1.80
2023-01-28T08:25:37.894Z,1.90
2023-01-28T08:28:07.402Z,1.90
2023-01-28T08:30:38.134Z,1.90
2023-01-28T08:33:09.133Z,1.90
2023-01-28T08:35:38.120Z,2.00
2023-01-28T08:38:08.244Z,2.00
2023-01-28T08:40:37.022Z,2.00
2023-01-28T08:43:05.782Z,1.90
2023-01-28T08:45:34.210Z,1.90
2023-01-28T08:48:05.195Z,1.90
2023-01-28T08:50:37.891Z,1.90
2023-01-28T08:53:09.172Z,1.90
2023-01-28T08:55:37.565Z,2.00
2023-01-28T08:58:07.851Z,2.00
2023-01-28T09:00:36.572Z,2.00
2023-01-28T09:03:06.285Z,2.00
2023-01-28T09:05:37.448Z,2.00
2023-01-28T09:08:08.127Z,2.00
2023-01-28T09:10:37.553Z,2.00
2023-01-28T09:13:10.320Z,2.00
2023-01-28T09:15:39.231Z,2.00
2023-01-28T09:18:08.013Z,2.00
2023-01-28T09:20:39.011Z,2.00
2023-01-28T09:23:07.562Z,2.10
2023-01-28T09:25:37.162Z,2.10
2023-01-28T09:28:06.491Z,2.00
2023-01-28T09:30:37.400Z,2.00
2023-01-28T09:33:06.787Z,2.00
2023-01-28T09:35:37.038Z,2.00
2023-01-28T09:38:05.732Z,2.00
2023-01-28T09:40:38.463Z,1.90
2023-01-28T09:43:32.638Z,1.90
2023-01-28T09:46:04.942Z,1.90
2023-01-28T09:48:38.225Z,1.90
2023-01-28T09:51:12.849Z,1.90
2023-01-28T09:53:45.585Z,2.00
2023-01-28T09:56:20.863Z,1.90
2023-01-28T09:58:49.159Z,1.90
2023-01-28T10:01:38.316Z,2.00
2023-01-28T10:04:23.312Z,2.00
2023-01-28T10:07:06.337Z,1.90
2023-01-28T10:09:45.692Z,1.90
2023-01-28T10:12:35.440Z,2.00
2023-01-28T10:15:28.400Z,2.00
2023-01-28T10:18:16.083Z,2.00
2023-01-28T10:20:49.590Z,2.00
2023-01-28T10:23:24.919Z,2.00
2023-01-28T10:25:53.695Z,2.00
2023-01-28T10:28:25.622Z,2.00
2023-01-28T10:30:54.159Z,2.00
2023-01-28T10:33:29.919Z,2.00
2023-01-28T10:35:58.519Z,2.10
2023-01-28T10:38:29.402Z,2.10
2023-01-28T10:41:03.068Z,2.10
2023-01-28T10:43:35.200Z,2.10
2023-01-28T10:46:09.201Z,2.10
2023-01-28T10:48:43.196Z,2.10
2023-01-28T10:51:11.578Z,2.10
2023-01-28T10:53:43.930Z,2.20
2023-01-28T10:56:15.983Z,2.10
2023-01-28T10:59:00.660Z,2.00
2023-01-28T11:01:44.859Z,2.00
2023-01-28T11:04:25.227Z,2.00
2023-01-28T11:06:56.885Z,2.00
2023-01-28T11:09:30.827Z,2.00
2023-01-28T11:11:59.784Z,2.00
2023-01-28T11:14:28.750Z,2.00
2023-01-28T11:16:59.514Z,1.90
2023-01-28T11:19:35.563Z,1.90
2023-01-28T11:22:04.710Z,1.90
2023-01-28T11:24:36.019Z,1.90
2023-01-28T11:27:17.339Z,1.90
2023-01-28T11:29:46.348Z,1.90
2023-01-28T11:32:22.219Z,1.80
2023-01-28T11:34:53.228Z,1.70
2023-01-28T11:37:22.874Z,1.70
2023-01-28T11:40:20.139Z,1.70
2023-01-28T11:42:51.753Z,1.70
2023-01-28T11:45:27.246Z,1.70
2023-01-28T11:48:12.637Z,1.70
2023-01-28T11:50:48.972Z,1.80
2023-01-28T11:53:40.535Z,1.80
2023-01-28T11:56:27.210Z,1.70
2023-01-28T11:59:09.533Z,1.80
2023-01-28T12:01:48.972Z,1.80
2023-01-28T12:04:40.015Z,1.80
2023-01-28T12:07:27.563Z,1.80
2023-01-28T12:10:00.312Z,1.80
2023-01-28T12:12:49.991Z,1.80
2023-01-28T12:15:52.977Z,1.80
2023-01-28T12:18:39.817Z,1.80
2023-01-28T12:21:12.258Z,1.90
2023-01-28T12:23:57.902Z,1.90
2023-01-28T12:26:37.983Z,2.00
2023-01-28T12:29:24.049Z,2.00
2023-01-28T12:32:06.966Z,2.20
2023-01-28T12:35:18.416Z,2.30
2023-01-28T12:37:59.845Z,2.40
2023-01-28T12:40:46.753Z,2.40
2023-01-28T12:43:22.203Z,2.50
2023-01-28T12:45:56.917Z,2.60
2023-01-28T12:48:31.912Z,2.60
2023-01-28T12:51:09.053Z,2.60
2023-01-28T12:53:43.943Z,2.70
2023-01-28T12:56:16.998Z,2.90
2023-01-28T12:58:53.518Z,3.00
2023-01-28T13:01:29.824Z,2.90
2023-01-28T13:04:07.881Z,2.80
2023-01-28T13:06:42.511Z,2.80
2023-01-28T13:09:19.376Z,2.70
2023-01-28T13:11:50.203Z,2.60
2023-01-28T13:14:19.533Z,2.60
2023-01-28T13:16:49.238Z,2.50
2023-01-28T13:19:26.691Z,2.40
2023-01-28T13:21:54.998Z,2.40
2023-01-28T13:24:34.217Z,2.40
2023-01-28T13:27:14.347Z,2.30
2023-01-28T13:29:43.899Z,2.20
2023-01-28T13:32:35.643Z,2.20
2023-01-28T13:35:08.817Z,2.10
2023-01-28T13:37:40.847Z,2.20
2023-01-28T13:40:26.770Z,2.10
2023-01-28T13:43:05.209Z,2.10
2023-01-28T13:45:35.030Z,2.10
2023-01-28T13:48:23.341Z,2.10
2023-01-28T13:50:54.779Z,2.10
2023-01-28T13:53:36.684Z,2.10
2023-01-28T13:56:09.346Z,2.10
2023-01-28T13:59:36.412Z,2.20
2023-01-28T14:02:35.563Z,2.20
2023-01-28T14:06:00.377Z,2.20
2023-01-28T14:08:55.275Z,2.30
2023-01-28T14:11:46.158Z,2.20
2023-01-28T14:14:36.291Z,2.20
2023-01-28T14:17:11.090Z,2.20
2023-01-28T14:19:39.864Z,2.20
2023-01-28T14:22:10.963Z,2.30
2023-01-28T14:24:39.779Z,2.30
2023-01-28T14:27:14.821Z,2.30
2023-01-28T14:30:05.615Z,2.30
2023-01-28T14:32:35.538Z,2.30
2023-01-28T14:35:10.393Z,2.20
2023-01-28T14:37:40.381Z,2.20
2023-01-28T14:40:15.063Z,2.10
2023-01-28T14:42:47.154Z,2.20
2023-01-28T14:45:34.490Z,2.10
2023-01-28T14:48:26.871Z,2.10
2023-01-28T14:51:25.811Z,2.10
2023-01-28T14:54:18.981Z,2.10
2023-01-28T14:57:06.321Z,2.00
2023-01-28T14:59:42.511Z,2.00
2023-01-28T15:02:21.208Z,1.90
2023-01-28T15:04:50.205Z,1.90
2023-01-28T15:07:22.469Z,1.90
2023-01-28T15:10:02.267Z,1.90
2023-01-28T15:12:34.549Z,1.90
2023-01-28T15:15:11.772Z,1.90
2023-01-28T15:17:40.658Z,1.90
2023-01-28T15:20:10.863Z,1.90
2023-01-28T15:22:40.189Z,1.80
2023-01-28T15:25:19.159Z,1.80
2023-01-28T15:27:47.739Z,1.70
2023-01-28T15:30:28.818Z,1.70
2023-01-28T15:33:05.591Z,1.80
2023-01-28T15:35:37.093Z,1.80
2023-01-28T15:38:06.147Z,1.80
2023-01-28T15:40:44.044Z,1.80
2023-01-28T15:43:22.378Z,1.70
2023-01-28T15:45:56.041Z,1.70
2023-01-28T15:48:28.163Z,1.70
2023-01-28T15:51:02.027Z,1.60
2023-01-28T15:53:35.401Z,1.60
2023-01-28T15:56:11.823Z,1.50
2023-01-28T15:58:42.640Z,1.50
2023-01-28T16:01:17.821Z,1.40
2023-01-28T16:03:49.281Z,1.40
2023-01-28T16:06:20.463Z,1.30
2023-01-28T16:08:54.657Z,1.20
2023-01-28T16:11:27.689Z,1.20
2023-01-28T16:13:57.817Z,1.20
2023-01-28T16:16:30.869Z,1.20
2023-01-28T16:18:59.622Z,1.10
2023-01-28T16:21:32.147Z,1.00
2023-01-28T16:24:04.072Z,0.90
2023-01-28T16:26:36.640Z,0.90
2023-01-28T16:29:17.019Z,0.80
2023-01-28T16:31:45.611Z,0.80
2023-01-28T16:34:13.977Z,0.70
2023-01-28T16:36:42.512Z,0.50
2023-01-28T16:39:10.774Z,0.30
2023-01-28T16:41:43.803Z,0.10
2023-01-28T16:44:14.948Z,0.20
2023-01-28T16:46:43.753Z,0.20
2023-01-28T16:49:12.517Z,0.20
2023-01-28T16:51:44.349Z,0.20
2023-01-28T16:54:15.605Z,0.10
2023-01-28T16:56:46.744Z,0.10
2023-01-28T16:59:17.163Z,0.00
2023-01-28T17:01:45.998Z,0.00
2023-01-28T17:04:15.034Z,0.00
2023-01-28T17:06:45.316Z,-0.10
2023-01-28T17:09:15.384Z,-0.10
2023-01-28T17:11:45.010Z,0.00
2023-01-28T17:14:13.551Z,-0.10
2023-01-28T17:16:42.063Z,-0.20
2023-01-28T17:19:10.491Z,-0.30
2023-01-28T17:21:38.834Z,-0.30
2023-01-28T17:24:08.473Z,-0.40
2023-01-28T17:26:38.218Z,-0.40
2023-01-28T17:29:09.211Z,-0.40
2023-01-28T17:31:38.102Z,-0.40
2023-01-28T17:34:07.125Z,-0.40
2023-01-28T17:36:35.623Z,-0.50
2023-01-28T17:39:04.243Z,-0.60
2023-01-28T17:41:32.601Z,-0.60
2023-01-28T17:44:00.878Z,-0.70
2023-01-28T17:46:30.553Z,-0.70
2023-01-28T17:48:58.887Z,-0.70
2023-01-28T17:51:27.308Z,-0.60
2023-01-28T17:53:55.713Z,-0.70
2023-01-28T17:56:26.864Z,-0.70
2023-01-28T17:58:57.399Z,-0.80
2023-01-28T18:01:27.380Z,-0.80
2023-01-28T18:03:58.605Z,-0.90
2023-01-28T18:06:27.393Z,-0.90
2023-01-28T18:08:55.833Z,-0.90
2023-01-28T18:11:24.187Z,-1.00
2023-01-28T18:13:52.592Z,-1.10
2023-01-28T18:16:22.102Z,-1.10
2023-01-28T18:18:51.507Z,-1.10
2023-01-28T18:21:46.376Z,-1.10
2023-01-28T18:24:15.149Z,-1.10
2023-01-28T18:26:43.461Z,-1.20
2023-01-28T18:29:16.587Z,-1.30
2023-01-28T18:31:45.059Z,-1.20
2023-01-28T18:34:13.496Z,-1.20
2023-01-28T18:36:43.245Z,-1.20
2023-01-28T18:39:13.677Z,-1.20
2023-01-28T18:41:41.991Z,-1.30
2023-01-28T18:44:11.359Z,-1.30
2023-01-28T18:46:40.232Z,-1.30
2023-01-28T18:49:08.824Z,-1.30
2023-01-28T18:51:37.217Z,-1.30
2023-01-28T18:54:12.027Z,-1.30
2023-01-28T18:56:41.900Z,-1.30
2023-01-28T18:59:14.181Z,-1.40
2023-01-28T19:01:43.999Z,-1.50
2023-01-28T19:04:12.428Z,-1.50
2023-01-28T19:06:41.176Z,-1.60
2023-01-28T19:09:13.712Z,-1.50
2023-01-28T19:11:42.921Z,-1.50
2023-01-28T19:14:14.157Z,-1.50
2023-01-28T19:16:42.535Z,-1.50
2023-01-28T19:19:11.060Z,-1.50
2023-01-28T19:21:39.482Z,-1.60
2023-01-28T19:24:14.043Z,-1.60
2023-01-28T19:26:45.169Z,-1.60
2023-01-28T19:29:16.025Z,-1.60
2023-01-28T19:31:48.577Z,-1.60
2023-01-28T19:34:17.142Z,-1.60
2023-01-28T19:36:45.824Z,-1.70
2023-01-28T19:39:16.205Z,-1.60
2023-01-28T19:41:45.328Z,-1.50
2023-01-28T19:44:13.843Z,-1.60
2023-01-28T19:46:42.320Z,-1.60
2023-01-28T19:49:12.348Z,-1.70
2023-01-28T19:51:40.807Z,-1.70
2023-01-28T19:54:09.601Z,-1.70
2023-01-28T19:56:39.807Z,-1.80
2023-01-28T19:59:08.463Z,-1.80
2023-01-28T20:01:37.003Z,-1.90
2023-01-28T20:04:05.903Z,-1.90
2023-01-28T20:06:36.551Z,-1.90
2023-01-28T20:09:08.881Z,-1.90
2023-01-28T20:11:38.610Z,-2.00
2023-01-28T20:14:06.945Z,-2.00
2023-01-28T20:16:36.932Z,-1.90
2023-01-28T20:19:07.709Z,-1.90
2023-01-28T20:21:37.093Z,-1.90
2023-01-28T20:24:11.628Z,-1.90
2023-01-28T20:26:43.965Z,-2.00
2023-01-28T20:29:17.429Z,-2.00
2023-01-28T20:31:54.072Z,-2.00
2023-01-28T20:34:29.318Z,-2.00
2023-01-28T20:36:57.577Z,-2.00
2023-01-28T20:39:25.894Z,-2.00
2023-01-28T20:41:55.765Z,-2.10
2023-01-28T20:44:24.112Z,-2.10
2023-01-28T20:46:52.393Z,-2.20
2023-01-28T20:49:20.675Z,-2.20
2023-01-28T20:51:49.017Z,-2.10
2023-01-28T20:54:18.689Z,-2.10
2023-01-28T20:56:46.969Z,-2.10
2023-01-28T20:59:17.418Z,-2.10
2023-01-28T21:01:46.602Z,-2.10
2023-01-28T21:04:17.088Z,-2.10
2023-01-28T21:06:45.348Z,-2.20
2023-01-28T21:09:13.677Z,-2.20
2023-01-28T21:11:42.003Z,-2.20
2023-01-28T21:14:12.136Z,-2.20
2023-01-28T21:16:42.479Z,-2.20
2023-01-28T21:19:10.872Z,-2.20
2023-01-28T21:21:42.585Z,-2.20
2023-01-28T21:24:12.378Z,-2.20
2023-01-28T21:26:40.685Z,-2.20
2023-01-28T21:29:09.025Z,-2.20
2023-01-28T21:31:37.582Z,-2.20
2023-01-28T21:34:08.378Z,-2.30
2023-01-28T21:36:37.524Z,-2.20
2023-01-28T21:39:06.697Z,-2.20
2023-01-28T21:41:35.067Z,-2.30
2023-01-28T21:44:03.558Z,-2.40
2023-01-28T21:46:34.748Z,-2.30
2023-01-28T21:49:06.086Z,-2.30
2023-01-28T21:51:39.282Z,-2.30
2023-01-28T21:54:11.564Z,-2.40
2023-01-28T21:56:39.931Z,-2.40
2023-01-28T21:59:25.797Z,-2.50
2023-01-28T22:01:54.216Z,-2.60
2023-01-28T22:04:24.507Z,-2.50
2023-01-28T22:06:55.383Z,-2.60
2023-01-28T22:09:24.508Z,-2.50
2023-01-28T22:11:54.413Z,-2.50
2023-01-28T22:14:23.173Z,-2.60
2023-01-28T22:16:52.221Z,-2.60
2023-01-28T22:19:20.817Z,-2.70
2023-01-28T22:21:50.667Z,-2.70
2023-01-28T22:24:20.897Z,-2.70
2023-01-28T22:26:49.747Z,-2.60
2023-01-28T22:29:20.301Z,-2.60
2023-01-28T22:31:49.695Z,-2.60
2023-01-28T22:34:19.112Z,-2.70
2023-01-28T22:36:49.303Z,-2.70
2023-01-28T22:39:19.382Z,-2.90
2023-01-28T22:41:48.239Z,-2.90
2023-01-28T22:44:16.690Z,-3.00
2023-01-28T22:46:45.000Z,-2.90
2023-01-28T22:49:14.942Z,-2.90
2023-01-28T22:51:43.363Z,-2.80
2023-01-28T22:54:15.040Z,-2.80
2023-01-28T22:56:43.489Z,-2.80
2023-01-28T22:59:12.787Z,-2.90
2023-01-28T23:01:41.356Z,-2.90
2023-01-28T23:04:10.065Z,-2.90
2023-01-28T23:06:38.392Z,-2.90
2023-01-28T23:09:06.825Z,-2.90
2023-01-28T23:11:36.783Z,-2.90
2023-01-28T23:14:22.796Z,-2.90
2023-01-28T23:17:08.977Z,-2.90
2023-01-28T23:19:54.565Z,-2.90
2023-01-28T23:22:44.358Z,-2.90
2023-01-28T23:25:12.925Z,-2.90
2023-01-28T23:27:42.726Z,-2.90
2023-01-28T23:30:13.904Z,-2.90
2023-01-28T23:32:47.350Z,-2.90
2023-01-28T23:35:15.991Z,-2.90
2023-01-28T23:37:44.400Z,-2.90
2023-01-28T23:40:15.161Z,-2.90
2023-01-28T23:42:49.128Z,-2.90
2023-01-28T23:45:17.639Z,-2.90
2023-01-28T23:47:45.973Z,-2.90
2023-01-28T23:50:14.746Z,-3.00
2023-01-28T23:52:43.288Z,-3.00
2023-01-28T23:55:11.660Z,-2.90
2023-01-28T23:57:39.916Z,-3.00
